sensor_id;sensor_type;location;lat;lon;timestamp;temperature;humidity
31735;DHT22;18313;48.518;9.124;2024-01-15T00:00:50;-1.30;99.90
31735;DHT22;18313;48.518;9.124;2024-01-15T00:03:17;-1.30;99.90
31735;DHT22;18313;48.518;9.124;2024-01-15T00:05:45;-1.30;99.90
31735;DHT22;18313;48.518;9.124;2024-01-15T00:08:12;-1.30;99.90
31735;DHT22;18313;48.518;9.124;2024-01-15T00:10:39;-1.20;99.90
31735;DHT22;18313;48.518;9.124;2024-01-15T00:13:08;-1.30;99.90
31735;DHT22;18313;48.518;9.124;2024-01-15T00:15:35;-1.30;99.90
31735;DHT22;18313;48.518;9.124;2024-01-15T00:18:03;-1.30;99.90
31735;DHT22;18313;48.518;9.124;2024-01-15T00:20:31;-1.40;99.90
31735;DHT22;18313;48.518;9.124;2024-01-15T00:22:58;-1.30;99.90
31735;DHT22;18313;48.518;9.124;2024-01-15T00:25:25;-1.10;99.90
31735;DHT22;18313;48.518;9.124;2024-01-15T00:27:52;-1.20;99.90
31735;DHT22;18313;48.518;9.124;2024-01-15T00:30:19;-1.10;99.90
31735;DHT22;18313;48.518;9.124;2024-01-15T00:32:47;-1.10;99.90
31735;DHT22;18313;48.518;9.124;2024-01-15T00:35:14;-1.10;99.90
31735;DHT22;18313;48.518;9.124;2024-01-15T00:37:41;-1.20;99.90
31735;DHT22;18313;48.518;9.124;2024-01-15T00:40:09;-1.20;99.90
31735;DHT22;18313;48.518;9.124;2024-01-15T00:42:36;-1.20;99.90
31735;DHT22;18313;48.518;9.124;2024-01-15T00:45:03;-1.20;99.90
31735;DHT22;18313;48.518;9.124;2024-01-15T00:47:32;-1.10;99.90
31735;DHT22;18313;48.518;9.124;2024-01-15T00:49:59;-1.10;99.90
31735;DHT22;18313;48.518;9.124;2024-01-15T00:52:26;-1.00;99.90
31735;DHT22;18313;48.518;9.124;2024-01-15T00:54:53;-1.00;99.90
31735;DHT22;18313;48.518;9.124;2024-01-15T00:57:21;-0.90;99.90
31735;DHT22;18313;48.518;9.124;2024-01-15T00:59:48;-1.00;99.90
31735;DHT22;18313;48.518;9.124;2024-01-15T01:02:16;-0.90;99.90
31735;DHT22;18313;48.518;9.124;2024-01-15T01:04:43;-0.90;99.90
31735;DHT22;18313;48.518;9.124;2024-01-15T01:07:10;-0.80;99.90
31735;DHT22;18313;48.518;9.124;2024-01-15T01:09:37;-0.80;99.90
31735;DHT22;18313;48.518;9.124;2024-01-15T01:12:05;-0.90;99.90
31735;DHT22;18313;48.518;9.124;2024-01-15T01:14:32;-0.80;99.90
31735;DHT22;18313;48.518;9.124;2024-01-15T01:17:00;-0.80;99.90
31735;DHT22;18313;48.518;9.124;2024-01-15T01:19:27;-0.90;99.90
31735;DHT22;18313;48.518;9.124;2024-01-15T01:21:54;-0.90;99.90
31735;DHT22;18313;48.518;9.124;2024-01-15T01:24:22;-0.80;99.90
31735;DHT22;18313;48.518;9.124;2024-01-15T01:26:49;-0.80;99.90
31735;DHT22;18313;48.518;9.124;2024-01-15T01:29:16;-0.80;99.90
31735;DHT22;18313;48.518;9.124;2024-01-15T01:31:44;-0.70;99.90
31735;DHT22;18313;48.518;9.124;2024-01-15T01:34:15;-0.70;99.90
31735;DHT22;18313;48.518;9.124;2024-01-15T01:36:43;-0.70;99.90
31735;DHT22;18313;48.518;9.124;2024-01-15T01:39:11;-0.70;99.90
31735;DHT22;18313;48.518;9.124;2024-01-15T01:41:38;-0.70;99.90
31735;DHT22;18313;48.518;9.124;2024-01-15T01:44:06;-0.80;99.90
31735;DHT22;18313;48.518;9.124;2024-01-15T01:46:35;-0.80;99.90
31735;DHT22;18313;48.518;9.124;2024-01-15T01:49:07;-0.80;99.90
31735;DHT22;18313;48.518;9.124;2024-01-15T01:51:35;-0.80;99.90
31735;DHT22;18313;48.518;9.124;2024-01-15T01:54:05;-0.70;99.90
31735;DHT22;18313;48.518;9.124;2024-01-15T01:56:34;-0.70;99.90
31735;DHT22;18313;48.518;9.124;2024-01-15T01:59:02;-0.60;99.90
31735;DHT22;18313;48.518;9.124;2024-01-15T02:01:31;-0.60;99.90
31735;DHT22;18313;48.518;9.124;2024-01-15T02:03:58;-0.70;99.90
31735;DHT22;18313;48.518;9.124;2024-01-15T02:06:26;-0.60;99.90
31735;DHT22;18313;48.518;9.124;2024-01-15T02:08:54;-0.60;99.90
31735;DHT22;18313;48.518;9.124;2024-01-15T02:11:21;-0.60;99.90
31735;DHT22;18313;48.518;9.124;2024-01-15T02:13:49;-0.50;99.90
31735;DHT22;18313;48.518;9.124;2024-01-15T02:16:16;-0.50;99.90
31735;DHT22;18313;48.518;9.124;2024-01-15T02:18:45;-0.50;99.90
31735;DHT22;18313;48.518;9.124;2024-01-15T02:21:12;-0.50;99.90
31735;DHT22;18313;48.518;9.124;2024-01-15T02:23:39;-0.50;99.90
31735;DHT22;18313;48.518;9.124;2024-01-15T02:26:07;-0.60;99.90
31735;DHT22;18313;48.518;9.124;2024-01-15T02:28:35;-0.60;99.90
31735;DHT22;18313;48.518;9.124;2024-01-15T02:31:02;-0.50;99.90
31735;DHT22;18313;48.518;9.124;2024-01-15T02:33:29;-0.60;99.90
31735;DHT22;18313;48.518;9.124;2024-01-15T02:35:57;-0.60;99.90
31735;DHT22;18313;48.518;9.124;2024-01-15T02:38:24;-0.60;99.90
31735;DHT22;18313;48.518;9.124;2024-01-15T02:40:51;-0.60;99.90
31735;DHT22;18313;48.518;9.124;2024-01-15T02:43:18;-0.60;99.90
31735;DHT22;18313;48.518;9.124;2024-01-15T02:45:46;-0.70;99.90
31735;DHT22;18313;48.518;9.124;2024-01-15T02:48:16;-0.70;99.90
31735;DHT22;18313;48.518;9.124;2024-01-15T02:50:43;-0.80;99.90
31735;DHT22;18313;48.518;9.124;2024-01-15T02:53:10;-0.90;99.90
31735;DHT22;18313;48.518;9.124;2024-01-15T02:55:37;-1.00;99.90
31735;DHT22;18313;48.518;9.124;2024-01-15T02:58:05;-1.00;99.90
31735;DHT22;18313;48.518;9.124;2024-01-15T03:00:32;-1.00;99.90
31735;DHT22;18313;48.518;9.124;2024-01-15T03:02:59;-1.00;99.90
31735;DHT22;18313;48.518;9.124;2024-01-15T03:05:26;-0.90;99.90
31735;DHT22;18313;48.518;9.124;2024-01-15T03:07:53;-1.00;99.90
31735;DHT22;18313;48.518;9.124;2024-01-15T03:10:20;-1.00;99.90
31735;DHT22;18313;48.518;9.124;2024-01-15T03:12:47;-0.90;99.90
31735;DHT22;18313;48.518;9.124;2024-01-15T03:15:15;-0.90;99.90
31735;DHT22;18313;48.518;9.124;2024-01-15T03:17:42;-0.90;99.90
31735;DHT22;18313;48.518;9.124;2024-01-15T03:20:10;-0.80;99.90
31735;DHT22;18313;48.518;9.124;2024-01-15T03:22:38;-0.60;99.90
31735;DHT22;18313;48.518;9.124;2024-01-15T03:25:06;-0.50;99.90
31735;DHT22;18313;48.518;9.124;2024-01-15T03:27:33;-0.50;99.90
31735;DHT22;18313;48.518;9.124;2024-01-15T03:30:00;-0.50;99.90
31735;DHT22;18313;48.518;9.124;2024-01-15T03:32:29;-0.50;99.90
31735;DHT22;18313;48.518;9.124;2024-01-15T03:34:56;-0.40;99.90
31735;DHT22;18313;48.518;9.124;2024-01-15T03:37:23;-0.40;99.90
31735;DHT22;18313;48.518;9.124;2024-01-15T03:39:50;-0.40;99.90
31735;DHT22;18313;48.518;9.124;2024-01-15T03:42:18;-0.40;99.90
31735;DHT22;18313;48.518;9.124;2024-01-15T03:44:45;-0.40;99.90
31735;DHT22;18313;48.518;9.124;2024-01-15T03:47:12;-0.40;99.90
31735;DHT22;18313;48.518;9.124;2024-01-15T03:49:39;-0.30;99.90
31735;DHT22;18313;48.518;9.124;2024-01-15T03:52:06;-0.40;99.90
31735;DHT22;18313;48.518;9.124;2024-01-15T03:54:34;-0.30;99.90
31735;DHT22;18313;48.518;9.124;2024-01-15T03:57:01;-0.40;99.90
31735;DHT22;18313;48.518;9.124;2024-01-15T03:59:28;-0.40;99.90
31735;DHT22;18313;48.518;9.124;2024-01-15T04:01:55;-0.30;99.90
31735;DHT22;18313;48.518;9.124;2024-01-15T04:04:23;-0.30;99.90
31735;DHT22;18313;48.518;9.124;2024-01-15T04:06:50;-0.30;99.90
31735;DHT22;18313;48.518;9.124;2024-01-15T04:09:18;-0.30;99.90
31735;DHT22;18313;48.518;9.124;2024-01-15T04:11:45;-0.30;99.90
31735;DHT22;18313;48.518;9.124;2024-01-15T04:14:12;-0.30;99.90
31735;DHT22;18313;48.518;9.124;2024-01-15T04:16:39;-0.30;99.90
31735;DHT22;18313;48.518;9.124;2024-01-15T04:19:06;-0.30;99.90
31735;DHT22;18313;48.518;9.124;2024-01-15T04:21:33;-0.40;99.90
31735;DHT22;18313;48.518;9.124;2024-01-15T04:24:01;-0.40;99.90
31735;DHT22;18313;48.518;9.124;2024-01-15T04:26:28;-0.40;99.90
31735;DHT22;18313;48.518;9.124;2024-01-15T04:28:55;-0.30;99.90
31735;DHT22;18313;48.518;9.124;2024-01-15T04:31:25;-0.40;99.90
31735;DHT22;18313;48.518;9.124;2024-01-15T04:33:54;-0.40;99.90
31735;DHT22;18313;48.518;9.124;2024-01-15T04:36:21;-0.50;99.90
31735;DHT22;18313;48.518;9.124;2024-01-15T04:38:49;-0.40;99.90
31735;DHT22;18313;48.518;9.124;2024-01-15T04:41:16;-0.40;99.90
31735;DHT22;18313;48.518;9.124;2024-01-15T04:43:44;-0.40;99.90
31735;DHT22;18313;48.518;9.124;2024-01-15T04:46:11;-0.40;99.90
31735;DHT22;18313;48.518;9.124;2024-01-15T04:48:38;-0.40;99.90
31735;DHT22;18313;48.518;9.124;2024-01-15T04:51:06;-0.40;99.90
31735;DHT22;18313;48.518;9.124;2024-01-15T04:53:35;-0.40;99.90
31735;DHT22;18313;48.518;9.124;2024-01-15T04:56:03;-0.40;99.90
31735;DHT22;18313;48.518;9.124;2024-01-15T04:58:30;-0.40;99.90
31735;DHT22;18313;48.518;9.124;2024-01-15T05:00:57;-0.40;99.90
31735;DHT22;18313;48.518;9.124;2024-01-15T05:03:24;-0.40;99.90
31735;DHT22;18313;48.518;9.124;2024-01-15T05:05:52;-0.40;99.90
31735;DHT22;18313;48.518;9.124;2024-01-15T05:08:19;-0.40;99.90
31735;DHT22;18313;48.518;9.124;2024-01-15T05:10:47;-0.40;99.90
31735;DHT22;18313;48.518;9.124;2024-01-15T05:13:14;-0.30;99.90
31735;DHT22;18313;48.518;9.124;2024-01-15T05:15:41;-0.40;99.90
31735;DHT22;18313;48.518;9.124;2024-01-15T05:18:09;-0.40;99.90
31735;DHT22;18313;48.518;9.124;2024-01-15T05:20:36;-0.30;99.90
31735;DHT22;18313;48.518;9.124;2024-01-15T05:23:04;-0.30;99.90
31735;DHT22;18313;48.518;9.124;2024-01-15T05:25:31;-0.30;99.90
31735;DHT22;18313;48.518;9.124;2024-01-15T05:27:58;-0.30;99.90
31735;DHT22;18313;48.518;9.124;2024-01-15T05:30:25;-0.30;99.90
31735;DHT22;18313;48.518;9.124;2024-01-15T05:32:53;-0.30;99.90
31735;DHT22;18313;48.518;9.124;2024-01-15T05:35:20;-0.30;99.90
31735;DHT22;18313;48.518;9.124;2024-01-15T05:37:47;-0.30;99.90
31735;DHT22;18313;48.518;9.124;2024-01-15T05:40:15;-0.30;99.90
31735;DHT22;18313;48.518;9.124;2024-01-15T05:42:42;-0.30;99.90
31735;DHT22;18313;48.518;9.124;2024-01-15T05:45:09;-0.30;99.90
31735;DHT22;18313;48.518;9.124;2024-01-15T05:47:37;-0.40;99.90
31735;DHT22;18313;48.518;9.124;2024-01-15T05:50:04;-0.30;99.90
31735;DHT22;18313;48.518;9.124;2024-01-15T05:52:32;-0.30;99.90
31735;DHT22;18313;48.518;9.124;2024-01-15T05:54:59;-0.30;99.90
31735;DHT22;18313;48.518;9.124;2024-01-15T05:57:26;-0.30;99.90
31735;DHT22;18313;48.518;9.124;2024-01-15T05:59:54;-0.20;99.90
31735;DHT22;18313;48.518;9.124;2024-01-15T06:02:21;-0.30;99.90
31735;DHT22;18313;48.518;9.124;2024-01-15T06:04:48;-0.20;99.90
31735;DHT22;18313;48.518;9.124;2024-01-15T06:07:15;-0.20;99.90
31735;DHT22;18313;48.518;9.124;2024-01-15T06:09:43;-0.30;99.90
31735;DHT22;18313;48.518;9.124;2024-01-15T06:12:10;-0.20;99.90
31735;DHT22;18313;48.518;9.124;2024-01-15T06:14:37;-0.20;99.90
31735;DHT22;18313;48.518;9.124;2024-01-15T06:17:04;-0.20;99.90
31735;DHT22;18313;48.518;9.124;2024-01-15T06:19:31;-0.20;99.90
31735;DHT22;18313;48.518;9.124;2024-01-15T06:21:59;-0.20;99.90
31735;DHT22;18313;48.518;9.124;2024-01-15T06:24:26;-0.20;99.90
31735;DHT22;18313;48.518;9.124;2024-01-15T06:26:54;-0.20;99.90
31735;DHT22;18313;48.518;9.124;2024-01-15T06:29:21;-0.30;99.90
31735;DHT22;18313;48.518;9.124;2024-01-15T06:31:48;-0.20;99.90
31735;DHT22;18313;48.518;9.124;2024-01-15T06:34:16;-0.20;99.90
31735;DHT22;18313;48.518;9.124;2024-01-15T06:36:43;-0.20;99.90
31735;DHT22;18313;48.518;9.124;2024-01-15T06:39:11;-0.10;99.90
31735;DHT22;18313;48.518;9.124;2024-01-15T06:41:38;-0.20;99.90
31735;DHT22;18313;48.518;9.124;2024-01-15T06:44:10;-0.10;99.90
31735;DHT22;18313;48.518;9.124;2024-01-15T06:46:44;-0.20;99.90
31735;DHT22;18313;48.518;9.124;2024-01-15T06:49:12;-0.20;99.90
31735;DHT22;18313;48.518;9.124;2024-01-15T06:51:40;-0.20;99.90
31735;DHT22;18313;48.518;9.124;2024-01-15T06:54:07;-0.20;99.90
31735;DHT22;18313;48.518;9.124;2024-01-15T06:56:35;-0.20;99.90
31735;DHT22;18313;48.518;9.124;2024-01-15T06:59:02;-0.10;99.90
31735;DHT22;18313;48.518;9.124;2024-01-15T07:01:29;-0.10;99.90
31735;DHT22;18313;48.518;9.124;2024-01-15T07:03:57;-0.10;99.90
31735;DHT22;18313;48.518;9.124;2024-01-15T07:06:24;-0.10;99.90
31735;DHT22;18313;48.518;9.124;2024-01-15T07:08:52;-0.20;99.90
31735;DHT22;18313;48.518;9.124;2024-01-15T07:11:19;-0.10;99.90
31735;DHT22;18313;48.518;9.124;2024-01-15T07:13:46;-0.20;99.90
31735;DHT22;18313;48.518;9.124;2024-01-15T07:16:13;-0.20;99.90
31735;DHT22;18313;48.518;9.124;2024-01-15T07:18:51;-0.30;99.90
31735;DHT22;18313;48.518;9.124;2024-01-15T07:21:18;-0.20;99.90
31735;DHT22;18313;48.518;9.124;2024-01-15T07:23:46;-0.20;99.90
31735;DHT22;18313;48.518;9.124;2024-01-15T07:26:13;-0.10;99.90
31735;DHT22;18313;48.518;9.124;2024-01-15T07:28:41;0.00;99.90
31735;DHT22;18313;48.518;9.124;2024-01-15T07:31:08;0.00;99.90
31735;DHT22;18313;48.518;9.124;2024-01-15T07:33:36;0.00;99.90
31735;DHT22;18313;48.518;9.124;2024-01-15T07:36:04;0.00;99.90
31735;DHT22;18313;48.518;9.124;2024-01-15T07:38:31;0.00;99.90
31735;DHT22;18313;48.518;9.124;2024-01-15T07:40:58;0.00;99.90
31735;DHT22;18313;48.518;9.124;2024-01-15T07:43:25;0.10;99.90
31735;DHT22;18313;48.518;9.124;2024-01-15T07:45:54;0.00;99.90
31735;DHT22;18313;48.518;9.124;2024-01-15T07:48:22;-0.10;99.90
31735;DHT22;18313;48.518;9.124;2024-01-15T07:50:49;0.00;99.90
31735;DHT22;18313;48.518;9.124;2024-01-15T07:53:16;0.00;99.90
31735;DHT22;18313;48.518;9.124;2024-01-15T07:55:43;0.00;99.90
31735;DHT22;18313;48.518;9.124;2024-01-15T07:58:12;0.00;99.90
31735;DHT22;18313;48.518;9.124;2024-01-15T08:00:43;0.10;99.90
31735;DHT22;18313;48.518;9.124;2024-01-15T08:03:11;0.10;99.90
31735;DHT22;18313;48.518;9.124;2024-01-15T08:05:39;0.20;99.90
31735;DHT22;18313;48.518;9.124;2024-01-15T08:08:07;0.30;99.90
31735;DHT22;18313;48.518;9.124;2024-01-15T08:10:34;0.20;99.90
31735;DHT22;18313;48.518;9.124;2024-01-15T08:13:01;0.30;99.90
31735;DHT22;18313;48.518;9.124;2024-01-15T08:15:28;0.30;99.90
31735;DHT22;18313;48.518;9.124;2024-01-15T08:17:57;0.30;99.90
31735;DHT22;18313;48.518;9.124;2024-01-15T08:20:28;0.30;99.90
31735;DHT22;18313;48.518;9.124;2024-01-15T08:22:55;0.30;99.90
31735;DHT22;18313;48.518;9.124;2024-01-15T08:25:22;0.40;99.90
31735;DHT22;18313;48.518;9.124;2024-01-15T08:27:50;0.30;99.90
31735;DHT22;18313;48.518;9.124;2024-01-15T08:30:17;0.40;99.90
31735;DHT22;18313;48.518;9.124;2024-01-15T08:32:45;0.40;99.90
31735;DHT22;18313;48.518;9.124;2024-01-15T08:35:12;0.50;99.90
31735;DHT22;18313;48.518;9.124;2024-01-15T08:37:40;0.40;99.90
31735;DHT22;18313;48.518;9.124;2024-01-15T08:40:07;0.50;99.90
31735;DHT22;18313;48.518;9.124;2024-01-15T08:42:35;0.50;99.90
31735;DHT22;18313;48.518;9.124;2024-01-15T08:45:02;0.40;99.90
31735;DHT22;18313;48.518;9.124;2024-01-15T08:47:29;0.60;99.90
31735;DHT22;18313;48.518;9.124;2024-01-15T08:49:57;0.70;99.90
31735;DHT22;18313;48.518;9.124;2024-01-15T08:52:24;0.70;99.90
31735;DHT22;18313;48.518;9.124;2024-01-15T08:54:51;0.70;99.90
31735;DHT22;18313;48.518;9.124;2024-01-15T08:57:18;0.60;99.90
31735;DHT22;18313;48.518;9.124;2024-01-15T08:59:45;0.60;99.90
31735;DHT22;18313;48.518;9.124;2024-01-15T09:02:13;0.60;99.90
31735;DHT22;18313;48.518;9.124;2024-01-15T09:04:41;0.70;99.90
31735;DHT22;18313;48.518;9.124;2024-01-15T09:07:08;0.70;99.90
31735;DHT22;18313;48.518;9.124;2024-01-15T09:09:35;0.70;99.90
31735;DHT22;18313;48.518;9.124;2024-01-15T09:12:03;0.70;99.90
31735;DHT22;18313;48.518;9.124;2024-01-15T09:14:30;0.80;99.90
31735;DHT22;18313;48.518;9.124;2024-01-15T09:17:04;0.80;99.90
31735;DHT22;18313;48.518;9.124;2024-01-15T09:19:32;0.80;99.90
31735;DHT22;18313;48.518;9.124;2024-01-15T09:21:59;0.80;99.90
31735;DHT22;18313;48.518;9.124;2024-01-15T09:24:27;0.80;99.90
31735;DHT22;18313;48.518;9.124;2024-01-15T09:26:55;0.80;99.90
31735;DHT22;18313;48.518;9.124;2024-01-15T09:29:23;0.90;99.90
31735;DHT22;18313;48.518;9.124;2024-01-15T09:31:51;0.80;99.90
31735;DHT22;18313;48.518;9.124;2024-01-15T09:34:19;0.80;99.90
31735;DHT22;18313;48.518;9.124;2024-01-15T09:36:47;0.80;99.90
31735;DHT22;18313;48.518;9.124;2024-01-15T09:39:16;0.90;99.90
31735;DHT22;18313;48.518;9.124;2024-01-15T09:41:43;1.00;99.90
31735;DHT22;18313;48.518;9.124;2024-01-15T09:44:12;1.10;99.90
31735;DHT22;18313;48.518;9.124;2024-01-15T09:46:39;1.10;99.90
31735;DHT22;18313;48.518;9.124;2024-01-15T09:49:08;1.20;99.90
31735;DHT22;18313;48.518;9.124;2024-01-15T09:51:35;1.20;99.90
31735;DHT22;18313;48.518;9.124;2024-01-15T09:54:03;1.30;99.90
31735;DHT22;18313;48.518;9.124;2024-01-15T09:56:31;1.40;99.90
31735;DHT22;18313;48.518;9.124;2024-01-15T09:58:59;1.40;99.90
31735;DHT22;18313;48.518;9.124;2024-01-15T10:01:28;1.40;99.90
31735;DHT22;18313;48.518;9.124;2024-01-15T10:03:55;1.50;99.90
31735;DHT22;18313;48.518;9.124;2024-01-15T10:06:23;1.50;99.90
31735;DHT22;18313;48.518;9.124;2024-01-15T10:08:51;1.60;99.90
31735;DHT22;18313;48.518;9.124;2024-01-15T10:11:19;1.60;99.90
31735;DHT22;18313;48.518;9.124;2024-01-15T10:13:49;1.60;99.90
31735;DHT22;18313;48.518;9.124;2024-01-15T10:16:23;1.70;99.90
31735;DHT22;18313;48.518;9.124;2024-01-15T10:18:51;1.70;99.90
31735;DHT22;18313;48.518;9.124;2024-01-15T10:21:19;1.70;99.90
31735;DHT22;18313;48.518;9.124;2024-01-15T10:23:46;1.70;99.90
31735;DHT22;18313;48.518;9.124;2024-01-15T10:26:14;1.80;99.90
31735;DHT22;18313;48.518;9.124;2024-01-15T10:28:45;1.80;99.90
31735;DHT22;18313;48.518;9.124;2024-01-15T10:31:12;1.80;99.90
31735;DHT22;18313;48.518;9.124;2024-01-15T10:33:39;1.90;99.90
31735;DHT22;18313;48.518;9.124;2024-01-15T10:36:09;1.90;99.90
31735;DHT22;18313;48.518;9.124;2024-01-15T10:38:38;1.90;99.90
31735;DHT22;18313;48.518;9.124;2024-01-15T10:41:05;1.90;99.90
31735;DHT22;18313;48.518;9.124;2024-01-15T10:43:32;2.10;99.90
31735;DHT22;18313;48.518;9.124;2024-01-15T10:46:01;2.10;99.90
31735;DHT22;18313;48.518;9.124;2024-01-15T10:48:29;2.20;99.90
31735;DHT22;18313;48.518;9.124;2024-01-15T10:50:58;2.10;99.90
31735;DHT22;18313;48.518;9.124;2024-01-15T10:53:25;2.10;99.90
31735;DHT22;18313;48.518;9.124;2024-01-15T10:55:53;2.10;99.90
31735;DHT22;18313;48.518;9.124;2024-01-15T10:58:20;2.20;99.90
31735;DHT22;18313;48.518;9.124;2024-01-15T11:00:48;2.10;99.90
31735;DHT22;18313;48.518;9.124;2024-01-15T11:03:16;2.10;99.90
31735;DHT22;18313;48.518;9.124;2024-01-15T11:05:45;2.10;99.90
31735;DHT22;18313;48.518;9.124;2024-01-15T11:08:13;2.20;99.90
31735;DHT22;18313;48.518;9.124;2024-01-15T11:10:52;2.20;99.90
31735;DHT22;18313;48.518;9.124;2024-01-15T11:16:08;2.20;99.90
31735;DHT22;18313;48.518;9.124;2024-01-15T11:23:48;2.00;99.90
31735;DHT22;18313;48.518;9.124;2024-01-15T11:26:31;2.00;99.90
31735;DHT22;18313;48.518;9.124;2024-01-15T11:29:00;2.00;99.90
31735;DHT22;18313;48.518;9.124;2024-01-15T11:34:15;2.00;99.90
31735;DHT22;18313;48.518;9.124;2024-01-15T11:41:58;1.90;99.90
31735;DHT22;18313;48.518;9.124;2024-01-15T11:44:26;1.90;99.90
31735;DHT22;18313;48.518;9.124;2024-01-15T11:47:02;1.90;99.90
31735;DHT22;18313;48.518;9.124;2024-01-15T11:52:19;1.70;99.90
31735;DHT22;18313;48.518;9.124;2024-01-15T11:55:11;1.60;99.90
31735;DHT22;18313;48.518;9.124;2024-01-15T11:57:46;1.40;99.90
31735;DHT22;18313;48.518;9.124;2024-01-15T12:00:16;1.40;99.90
31735;DHT22;18313;48.518;9.124;2024-01-15T12:02:45;1.50;99.90
31735;DHT22;18313;48.518;9.124;2024-01-15T12:05:15;1.50;99.90
31735;DHT22;18313;48.518;9.124;2024-01-15T12:07:45;1.50;99.90
31735;DHT22;18313;48.518;9.124;2024-01-15T12:10:14;1.50;99.90
31735;DHT22;18313;48.518;9.124;2024-01-15T12:12:58;1.60;99.90
31735;DHT22;18313;48.518;9.124;2024-01-15T12:15:28;1.60;99.90
31735;DHT22;18313;48.518;9.124;2024-01-15T12:17:56;1.60;99.90
31735;DHT22;18313;48.518;9.124;2024-01-15T12:20:31;1.60;99.90
31735;DHT22;18313;48.518;9.124;2024-01-15T12:22:58;1.70;99.90
31735;DHT22;18313;48.518;9.124;2024-01-15T12:25:33;1.60;99.90
31735;DHT22;18313;48.518;9.124;2024-01-15T12:28:01;1.70;99.90
31735;DHT22;18313;48.518;9.124;2024-01-15T12:30:30;1.70;99.90
31735;DHT22;18313;48.518;9.124;2024-01-15T12:33:04;1.80;99.90
31735;DHT22;18313;48.518;9.124;2024-01-15T12:35:31;1.80;99.90
31735;DHT22;18313;48.518;9.124;2024-01-15T12:38:00;1.80;99.90
31735;DHT22;18313;48.518;9.124;2024-01-15T12:40:31;1.80;99.90
31735;DHT22;18313;48.518;9.124;2024-01-15T12:43:00;1.80;99.90
31735;DHT22;18313;48.518;9.124;2024-01-15T12:45:27;1.80;99.90
31735;DHT22;18313;48.518;9.124;2024-01-15T12:47:54;1.70;99.90
31735;DHT22;18313;48.518;9.124;2024-01-15T12:50:24;1.70;99.90
31735;DHT22;18313;48.518;9.124;2024-01-15T12:52:52;1.70;99.90
31735;DHT22;18313;48.518;9.124;2024-01-15T12:55:20;1.60;99.90
31735;DHT22;18313;48.518;9.124;2024-01-15T12:57:47;1.60;99.90
31735;DHT22;18313;48.518;9.124;2024-01-15T13:00:15;1.60;99.90
31735;DHT22;18313;48.518;9.124;2024-01-15T13:02:43;1.60;99.90
31735;DHT22;18313;48.518;9.124;2024-01-15T13:05:11;1.50;99.90
31735;DHT22;18313;48.518;9.124;2024-01-15T13:07:41;1.50;99.90
31735;DHT22;18313;48.518;9.124;2024-01-15T13:10:08;1.60;99.90
31735;DHT22;18313;48.518;9.124;2024-01-15T13:12:37;1.60;99.90
31735;DHT22;18313;48.518;9.124;2024-01-15T13:15:05;1.60;99.90
31735;DHT22;18313;48.518;9.124;2024-01-15T13:17:34;1.50;99.90
31735;DHT22;18313;48.518;9.124;2024-01-15T13:20:02;1.50;99.90
31735;DHT22;18313;48.518;9.124;2024-01-15T13:22:30;1.60;99.90
31735;DHT22;18313;48.518;9.124;2024-01-15T13:25:00;1.50;99.90
31735;DHT22;18313;48.518;9.124;2024-01-15T13:27:27;1.50;99.90
31735;DHT22;18313;48.518;9.124;2024-01-15T13:29:55;1.50;99.90
31735;DHT22;18313;48.518;9.124;2024-01-15T13:32:27;1.50;99.90
31735;DHT22;18313;48.518;9.124;2024-01-15T13:34:56;1.50;99.90
31735;DHT22;18313;48.518;9.124;2024-01-15T13:37:24;1.40;99.90
31735;DHT22;18313;48.518;9.124;2024-01-15T13:39:52;1.30;99.90
31735;DHT22;18313;48.518;9.124;2024-01-15T13:42:20;1.30;99.90
31735;DHT22;18313;48.518;9.124;2024-01-15T13:44:49;1.30;99.90
31735;DHT22;18313;48.518;9.124;2024-01-15T13:47:17;1.20;99.90
31735;DHT22;18313;48.518;9.124;2024-01-15T13:49:44;1.20;99.90
31735;DHT22;18313;48.518;9.124;2024-01-15T13:52:12;1.20;99.90
31735;DHT22;18313;48.518;9.124;2024-01-15T13:54:40;1.10;99.90
31735;DHT22;18313;48.518;9.124;2024-01-15T13:57:19;1.10;99.90
31735;DHT22;18313;48.518;9.124;2024-01-15T13:59:47;1.10;99.90
31735;DHT22;18313;48.518;9.124;2024-01-15T14:02:16;1.10;99.90
31735;DHT22;18313;48.518;9.124;2024-01-15T14:04:48;1.00;99.90
31735;DHT22;18313;48.518;9.124;2024-01-15T14:07:16;1.10;99.90
31735;DHT22;18313;48.518;9.124;2024-01-15T14:09:43;1.10;99.90
31735;DHT22;18313;48.518;9.124;2024-01-15T14:12:10;1.10;99.90
31735;DHT22;18313;48.518;9.124;2024-01-15T14:14:38;1.20;99.90
31735;DHT22;18313;48.518;9.124;2024-01-15T14:17:07;1.10;99.90
31735;DHT22;18313;48.518;9.124;2024-01-15T14:19:34;1.10;99.90
31735;DHT22;18313;48.518;9.124;2024-01-15T14:22:02;1.10;99.90
31735;DHT22;18313;48.518;9.124;2024-01-15T14:24:30;1.10;99.90
31735;DHT22;18313;48.518;9.124;2024-01-15T14:26:57;1.00;99.90
31735;DHT22;18313;48.518;9.124;2024-01-15T14:29:25;0.90;99.90
31735;DHT22;18313;48.518;9.124;2024-01-15T14:31:53;0.90;99.90
31735;DHT22;18313;48.518;9.124;2024-01-15T14:34:21;0.80;99.90
31735;DHT22;18313;48.518;9.124;2024-01-15T14:36:51;0.90;99.90
31735;DHT22;18313;48.518;9.124;2024-01-15T14:39:24;0.90;99.90
31735;DHT22;18313;48.518;9.124;2024-01-15T14:41:52;0.90;99.90
31735;DHT22;18313;48.518;9.124;2024-01-15T14:44:20;0.90;99.90
31735;DHT22;18313;48.518;9.124;2024-01-15T14:46:48;0.90;99.90
31735;DHT22;18313;48.518;9.124;2024-01-15T14:49:15;0.80;99.90
31735;DHT22;18313;48.518;9.124;2024-01-15T14:51:44;0.80;99.90
31735;DHT22;18313;48.518;9.124;2024-01-15T14:54:11;0.80;99.90
31735;DHT22;18313;48.518;9.124;2024-01-15T14:56:38;0.80;99.90
31735;DHT22;18313;48.518;9.124;2024-01-15T14:59:06;0.90;99.90
31735;DHT22;18313;48.518;9.124;2024-01-15T15:01:33;0.90;99.90
31735;DHT22;18313;48.518;9.124;2024-01-15T15:04:00;0.90;99.90
31735;DHT22;18313;48.518;9.124;2024-01-15T15:06:28;0.90;99.90
31735;DHT22;18313;48.518;9.124;2024-01-15T15:08:55;0.80;99.90
31735;DHT22;18313;48.518;9.124;2024-01-15T15:11:26;0.70;99.90
31735;DHT22;18313;48.518;9.124;2024-01-15T15:13:53;0.60;99.90
31735;DHT22;18313;48.518;9.124;2024-01-15T15:16:20;0.70;99.90
31735;DHT22;18313;48.518;9.124;2024-01-15T15:18:48;0.70;99.90
31735;DHT22;18313;48.518;9.124;2024-01-15T15:21:15;0.70;99.90
31735;DHT22;18313;48.518;9.124;2024-01-15T15:23:43;0.60;99.90
31735;DHT22;18313;48.518;9.124;2024-01-15T15:26:10;0.70;99.90
31735;DHT22;18313;48.518;9.124;2024-01-15T15:28:37;0.60;99.90
31735;DHT22;18313;48.518;9.124;2024-01-15T15:31:05;0.60;99.90
31735;DHT22;18313;48.518;9.124;2024-01-15T15:33:35;0.60;99.90
31735;DHT22;18313;48.518;9.124;2024-01-15T15:36:03;0.70;99.90
31735;DHT22;18313;48.518;9.124;2024-01-15T15:38:34;0.70;99.90
31735;DHT22;18313;48.518;9.124;2024-01-15T15:41:02;0.60;99.90
31735;DHT22;18313;48.518;9.124;2024-01-15T15:43:29;0.70;99.90
31735;DHT22;18313;48.518;9.124;2024-01-15T15:45:57;0.70;99.90
31735;DHT22;18313;48.518;9.124;2024-01-15T15:48:27;0.70;99.90
31735;DHT22;18313;48.518;9.124;2024-01-15T15:50:55;0.70;99.90
31735;DHT22;18313;48.518;9.124;2024-01-15T15:53:23;0.80;99.90
31735;DHT22;18313;48.518;9.124;2024-01-15T15:55:52;0.70;99.90
31735;DHT22;18313;48.518;9.124;2024-01-15T15:58:19;0.70;99.90
31735;DHT22;18313;48.518;9.124;2024-01-15T16:00:47;0.60;99.90
31735;DHT22;18313;48.518;9.124;2024-01-15T16:03:15;0.70;99.90